Terminal Aerodrome Forecast
Issued by NWS

Home | Current Version | Previous Version | Text Only | Print | Product List | Glossary On
Versions: 1 2 3 4 5 6 7 8 9 10 11 12 13
000
FTUS43 KPAH 250300 AAA
TAFCGI
TAF AMD
KCGI 250319Z 2503/2524 19015KT P6SM VCTS BKN040CB OVC100
      TEMPO 2504/2506 24025G35KT 3SM TSRA BR OVC025CB
     FM250600 28012KT P6SM BKN025
     FM251100 32010KT P6SM SKC=

USA.gov is the U.S. government's official web portal to all federal, state and local government web resources and services.